createdAt,value
2022-09-07T00:00:04.531Z,2.95
2022-09-07T00:00:26.412Z,3.00
2022-09-07T00:00:52.469Z,2.97
2022-09-07T00:01:14.416Z,2.80
2022-09-07T00:01:36.380Z,2.65
2022-09-07T00:01:59.856Z,2.97
2022-09-07T00:02:22.587Z,2.88
2022-09-07T00:02:44.725Z,2.92
2022-09-07T00:03:09.976Z,2.90
2022-09-07T00:03:31.972Z,2.70
2022-09-07T00:03:57.851Z,2.83
2022-09-07T00:04:20.090Z,2.85
2022-09-07T00:04:41.975Z,2.60
2022-09-07T00:05:06.134Z,2.50
2022-09-07T00:05:28.363Z,2.83
2022-09-07T00:05:51.625Z,2.65
2022-09-07T00:06:14.213Z,2.80
2022-09-07T00:06:36.441Z,2.50
2022-09-07T00:06:59.111Z,2.50
2022-09-07T00:07:20.983Z,2.30
2022-09-07T00:07:42.888Z,2.50
2022-09-07T00:08:04.785Z,2.67
2022-09-07T00:08:27.525Z,2.80
2022-09-07T00:08:49.598Z,2.67
2022-09-07T00:09:11.630Z,2.95
2022-09-07T00:09:33.600Z,2.75
2022-09-07T00:09:55.734Z,2.50
2022-09-07T00:10:17.618Z,2.85
2022-09-07T00:10:39.922Z,2.83
2022-09-07T00:11:04.636Z,2.83
2022-09-07T00:11:26.651Z,2.60
2022-09-07T00:11:48.603Z,2.75
2022-09-07T00:12:10.542Z,2.75
2022-09-07T00:12:32.406Z,2.65
2022-09-07T00:12:59.354Z,2.60
2022-09-07T00:13:22.498Z,2.67
2022-09-07T00:13:46.104Z,2.55
2022-09-07T00:14:10.585Z,2.50
2022-09-07T00:14:32.462Z,2.78
2022-09-07T00:14:55.729Z,2.53
2022-09-07T00:15:18.947Z,2.65
2022-09-07T00:15:40.840Z,2.50
2022-09-07T00:16:12.408Z,2.33
2022-09-07T00:16:34.766Z,2.60
2022-09-07T00:16:56.660Z,2.63
2022-09-07T00:17:19.525Z,2.63
2022-09-07T00:17:42.099Z,2.53
2022-09-07T00:18:04.106Z,2.70
2022-09-07T00:18:26.766Z,2.83
2022-09-07T00:18:48.781Z,2.72
2022-09-07T00:20:46.225Z,2.60
2022-09-07T00:21:14.058Z,2.65
2022-09-07T00:21:36.923Z,2.55
2022-09-07T00:21:58.848Z,2.78
2022-09-07T00:22:21.094Z,2.75
2022-09-07T00:22:43.090Z,2.70
2022-09-07T00:23:07.340Z,2.83
2022-09-07T00:23:30.551Z,2.78
2022-09-07T00:23:52.585Z,2.67
2022-09-07T00:24:15.001Z,2.58
2022-09-07T00:24:37.987Z,2.47
2022-09-07T00:28:58.150Z,2.58
2022-09-07T00:30:09.030Z,2.72
2022-09-07T00:31:38.441Z,2.65
2022-09-07T00:32:30.301Z,2.45
2022-09-07T00:36:06.757Z,2.55
2022-09-07T00:36:34.681Z,2.60
2022-09-07T00:37:10.255Z,2.63
2022-09-07T00:38:26.462Z,2.58
2022-09-07T00:38:51.052Z,2.50
2022-09-07T00:39:23.510Z,2.95
2022-09-07T00:39:49.772Z,2.55
2022-09-07T00:40:48.273Z,2.70
2022-09-07T00:41:21.110Z,2.75
2022-09-07T00:43:59.613Z,2.92
2022-09-07T00:46:21.144Z,2.65
2022-09-07T00:46:54.637Z,2.58
2022-09-07T00:56:45.996Z,2.90
2022-09-07T01:04:35.145Z,2.70
2022-09-07T01:05:09.540Z,2.42
2022-09-07T01:05:53.745Z,2.47
2022-09-07T01:06:24.364Z,2.53
2022-09-07T01:06:46.561Z,2.72
2022-09-07T01:07:08.874Z,2.63
2022-09-07T01:07:31.728Z,2.47
2022-09-07T01:07:56.374Z,2.40
2022-09-07T01:08:21.434Z,2.25
2022-09-07T01:08:45.365Z,2.22
2022-09-07T01:09:11.737Z,2.50
2022-09-07T01:09:34.116Z,2.33
2022-09-07T01:09:57.325Z,2.30
2022-09-07T01:10:19.700Z,2.30
2022-09-07T01:10:41.913Z,2.60
2022-09-07T01:11:05.196Z,2.30
2022-09-07T01:11:28.177Z,2.38
2022-09-07T01:11:51.943Z,2.40
2022-09-07T01:12:14.724Z,2.40
2022-09-07T01:12:36.659Z,2.50
2022-09-07T01:12:59.906Z,2.70
2022-09-07T01:13:24.356Z,2.30
2022-09-07T01:13:47.647Z,2.45
2022-09-07T01:14:15.175Z,2.70
2022-09-07T01:14:42.760Z,2.60
2022-09-07T01:15:06.429Z,2.50
2022-09-07T01:15:42.605Z,2.90
2022-09-07T01:16:40.424Z,2.60
2022-09-07T01:17:11.709Z,2.40
2022-09-07T01:18:32.045Z,2.50
2022-09-07T01:19:21.197Z,2.67
2022-09-07T01:19:58.816Z,2.35
2022-09-07T01:20:39.435Z,2.10
2022-09-07T01:21:15.070Z,2.58
2022-09-07T01:22:10.392Z,2.47
2022-09-07T01:22:56.035Z,2.40
2022-09-07T01:23:29.486Z,2.60
2022-09-07T01:24:32.271Z,2.65
2022-09-07T01:25:40.346Z,2.63
2022-09-07T01:26:30.583Z,2.40
2022-09-07T01:27:19.905Z,2.47
2022-09-07T01:27:44.624Z,2.35
2022-09-07T01:28:20.667Z,2.65
2022-09-07T01:28:43.794Z,2.70
2022-09-07T01:29:36.599Z,2.65
2022-09-07T01:30:14.948Z,2.58
2022-09-07T01:30:39.131Z,2.70
2022-09-07T01:31:35.104Z,2.38
2022-09-07T01:32:26.361Z,2.35
2022-09-07T01:32:54.472Z,2.30
2022-09-07T01:33:27.814Z,2.50
2022-09-07T01:33:55.729Z,2.25
2022-09-07T01:34:23.268Z,2.60
2022-09-07T01:34:52.453Z,2.40
2022-09-07T01:35:23.216Z,2.55
2022-09-07T01:35:51.156Z,2.58
2022-09-07T01:36:19.061Z,2.60
2022-09-07T01:36:48.608Z,2.70
2022-09-07T01:37:56.350Z,2.95
2022-09-07T01:38:41.830Z,3.00
2022-09-07T01:39:05.700Z,3.38
2022-09-07T01:39:40.776Z,3.05
2022-09-07T01:40:17.235Z,3.47
2022-09-07T01:40:56.841Z,3.20
2022-09-07T01:41:23.625Z,3.35
2022-09-07T01:42:09.504Z,3.55
2022-09-07T01:42:35.911Z,3.15
2022-09-07T01:43:04.345Z,3.20
2022-09-07T01:44:16.256Z,2.92
2022-09-07T01:44:40.333Z,2.83
2022-09-07T01:45:04.750Z,2.75
2022-09-07T01:45:32.301Z,2.63
2022-09-07T01:45:58.665Z,2.65
2022-09-07T01:46:32.032Z,2.80
2022-09-07T01:46:58.946Z,2.60
2022-09-07T01:47:41.523Z,2.80
2022-09-07T01:48:08.441Z,2.88
2022-09-07T01:48:36.525Z,2.80
2022-09-07T01:49:11.505Z,2.58
2022-09-07T01:50:02.284Z,2.50
2022-09-07T01:50:33.274Z,2.40
2022-09-07T01:51:02.923Z,2.50
2022-09-07T01:51:30.779Z,2.35
2022-09-07T01:51:58.432Z,2.60
2022-09-07T01:52:31.574Z,2.70
2022-09-07T01:53:09.395Z,2.50
2022-09-07T01:53:34.206Z,2.60
2022-09-07T01:53:59.965Z,2.67
2022-09-07T01:54:30.216Z,2.50
2022-09-07T01:55:05.726Z,2.47
2022-09-07T01:55:34.468Z,2.58
2022-09-07T01:56:01.774Z,2.60
2022-09-07T01:56:27.387Z,2.55
2022-09-07T01:56:54.242Z,2.40
2022-09-07T01:57:23.117Z,2.55
2022-09-07T01:57:53.839Z,2.80
2022-09-07T01:58:21.843Z,2.30
2022-09-07T01:59:01.426Z,2.28
2022-09-07T01:59:39.647Z,3.00
2022-09-07T02:00:12.246Z,2.63
2022-09-07T02:00:40.770Z,2.20
2022-09-07T02:01:34.957Z,2.40
2022-09-07T02:02:05.742Z,2.80
2022-09-07T02:02:36.956Z,2.70
2022-09-07T02:03:21.778Z,2.80
2022-09-07T02:03:46.320Z,2.58
2022-09-07T02:04:17.205Z,2.50
2022-09-07T02:04:49.525Z,2.80
2022-09-07T02:05:19.849Z,2.70
2022-09-07T02:05:58.626Z,2.70
2022-09-07T02:06:59.589Z,2.70
2022-09-07T02:07:55.089Z,2.70
2022-09-07T02:08:27.411Z,2.80
2022-09-07T02:09:00.926Z,2.50
2022-09-07T02:09:42.284Z,2.30
2022-09-07T02:10:21.520Z,2.75
2022-09-07T02:10:51.625Z,2.53
2022-09-07T02:11:20.904Z,2.65
2022-09-07T02:11:50.589Z,2.53
2022-09-07T02:12:27.268Z,2.42
2022-09-07T02:13:04.254Z,2.80
2022-09-07T02:13:46.625Z,2.67
2022-09-07T02:14:22.483Z,2.40
2022-09-07T02:14:52.634Z,2.83
2022-09-07T02:15:21.200Z,2.60
2022-09-07T02:15:51.853Z,2.67
2022-09-07T02:16:27.295Z,2.60
2022-09-07T02:17:02.261Z,2.70
2022-09-07T02:23:06.539Z,2.33
2022-09-07T02:23:37.252Z,2.60
2022-09-07T02:24:10.352Z,2.65
2022-09-07T02:24:41.430Z,2.40
2022-09-07T02:25:05.803Z,2.80
2022-09-07T02:25:34.797Z,2.80
2022-09-07T02:26:03.042Z,2.50
2022-09-07T02:26:28.029Z,2.65
2022-09-07T02:26:53.184Z,2.83
2022-09-07T02:27:29.937Z,2.90
2022-09-07T02:27:58.117Z,2.60
2022-09-07T02:28:25.796Z,2.50
2022-09-07T02:28:48.269Z,2.38
2022-09-07T02:29:12.685Z,2.50
2022-09-07T02:29:35.532Z,2.70
2022-09-07T02:29:57.973Z,2.38
2022-09-07T02:30:19.895Z,2.25
2022-09-07T02:30:42.345Z,2.35
2022-09-07T02:31:05.231Z,2.17
2022-09-07T02:31:27.200Z,2.47
2022-09-07T02:31:50.133Z,2.47
2022-09-07T02:32:12.635Z,2.47
2022-09-07T02:32:34.594Z,2.42
2022-09-07T02:32:56.543Z,2.45
2022-09-07T02:33:18.928Z,2.53
2022-09-07T02:33:43.417Z,2.15
2022-09-07T02:34:05.627Z,2.17
2022-09-07T02:34:27.752Z,2.35
2022-09-07T02:34:50.367Z,2.80
2022-09-07T02:35:12.716Z,2.85
2022-09-07T02:35:35.015Z,2.65
2022-09-07T02:35:57.741Z,2.50
2022-09-07T02:36:22.092Z,2.70
2022-09-07T02:36:49.210Z,2.70
2022-09-07T02:37:13.156Z,2.40
2022-09-07T02:37:37.114Z,2.75
2022-09-07T02:38:03.280Z,2.97
2022-09-07T02:38:26.166Z,2.40
2022-09-07T02:38:48.231Z,2.65
2022-09-07T02:39:10.139Z,2.65
2022-09-07T02:39:32.552Z,2.90
2022-09-07T02:39:55.241Z,2.80
2022-09-07T02:40:17.317Z,2.60
2022-09-07T02:40:39.262Z,2.90
2022-09-07T02:41:03.231Z,2.90
2022-09-07T02:41:40.347Z,2.70
2022-09-07T02:42:02.260Z,2.95
2022-09-07T02:42:24.432Z,2.55
2022-09-07T02:42:48.444Z,2.80
2022-09-07T02:43:11.813Z,2.38
2022-09-07T02:43:33.797Z,2.65
2022-09-07T02:43:59.346Z,2.80
2022-09-07T02:44:34.909Z,2.58
2022-09-07T02:44:57.059Z,2.58
2022-09-07T02:45:22.592Z,2.55
2022-09-07T02:46:02.013Z,2.80
2022-09-07T02:46:40.030Z,2.65
2022-09-07T02:47:24.016Z,2.40
2022-09-07T02:47:48.699Z,2.55
2022-09-07T02:48:46.240Z,2.55
2022-09-07T02:49:38.593Z,2.70
2022-09-07T02:50:04.322Z,2.45
2022-09-07T02:51:10.616Z,2.65
2022-09-07T02:51:58.368Z,2.92
2022-09-07T02:52:41.662Z,2.60
2022-09-07T02:53:15.625Z,2.72
2022-09-07T02:53:56.747Z,2.55
2022-09-07T02:54:52.099Z,2.50
2022-09-07T02:55:23.537Z,2.80
2022-09-07T02:56:15.143Z,2.58
2022-09-07T02:56:51.997Z,2.65
2022-09-07T02:57:37.850Z,2.90
2022-09-07T02:58:08.209Z,2.85
2022-09-07T02:58:58.213Z,2.88
2022-09-07T02:59:51.353Z,2.70
2022-09-07T03:00:20.979Z,2.65
2022-09-07T03:00:57.129Z,2.72
2022-09-07T03:01:34.639Z,2.72
2022-09-07T03:02:02.061Z,2.97
2022-09-07T03:02:46.440Z,2.63
2022-09-07T03:03:11.162Z,2.90
2022-09-07T03:04:13.288Z,2.67
2022-09-07T03:04:55.295Z,2.75
2022-09-07T03:05:24.682Z,2.80
2022-09-07T03:06:23.905Z,2.78
2022-09-07T03:06:54.345Z,2.90
2022-09-07T03:07:29.068Z,2.78
2022-09-07T03:07:57.009Z,2.83
2022-09-07T03:08:30.765Z,2.53
2022-09-07T03:08:58.418Z,2.90
2022-09-07T03:09:24.227Z,2.60
2022-09-07T03:09:50.228Z,2.60
2022-09-07T03:10:15.000Z,2.70
2022-09-07T03:10:43.127Z,2.50
2022-09-07T03:11:05.781Z,2.65
2022-09-07T03:11:29.471Z,2.90
2022-09-07T03:11:53.700Z,2.60
2022-09-07T03:12:17.360Z,2.70
2022-09-07T03:12:45.324Z,2.80
2022-09-07T03:13:07.475Z,3.00
2022-09-07T03:13:30.364Z,2.70
2022-09-07T03:13:52.284Z,2.45
2022-09-07T03:14:17.327Z,2.55
2022-09-07T03:14:44.122Z,2.72
2022-09-07T03:15:06.592Z,2.50
2022-09-07T03:15:31.071Z,2.60
2022-09-07T03:15:55.936Z,2.80
2022-09-07T03:16:18.367Z,2.90
2022-09-07T03:16:40.420Z,2.95
2022-09-07T03:17:02.781Z,2.40
2022-09-07T03:17:24.828Z,2.70
2022-09-07T03:17:47.387Z,2.83
2022-09-07T03:18:09.574Z,2.60
2022-09-07T03:18:31.580Z,2.47
2022-09-07T03:18:55.968Z,2.42
2022-09-07T03:19:18.152Z,2.63
2022-09-07T03:19:40.029Z,2.80
2022-09-07T03:20:02.158Z,2.65
2022-09-07T03:20:24.305Z,2.78
2022-09-07T03:20:46.538Z,2.78
2022-09-07T03:21:08.959Z,2.60
2022-09-07T03:21:32.122Z,2.65
2022-09-07T03:21:54.043Z,2.60
2022-09-07T03:22:15.956Z,2.50
2022-09-07T03:22:37.973Z,2.75
2022-09-07T03:23:00.847Z,2.75
2022-09-07T03:23:23.558Z,2.70
2022-09-07T03:23:48.812Z,2.65
2022-09-07T03:24:13.197Z,2.60
2022-09-07T03:24:35.516Z,2.47
2022-09-07T03:24:57.368Z,2.50
2022-09-07T03:25:20.029Z,2.60
2022-09-07T03:25:42.169Z,2.42
2022-09-07T03:26:05.389Z,2.40
2022-09-07T03:26:27.442Z,2.50
2022-09-07T03:26:50.612Z,2.55
2022-09-07T03:27:14.892Z,2.58
2022-09-07T03:27:37.615Z,2.97
2022-09-07T03:27:59.489Z,2.55
2022-09-07T03:28:22.855Z,2.60
2022-09-07T03:28:44.868Z,2.50
2022-09-07T03:29:07.807Z,2.55
2022-09-07T03:29:30.257Z,2.65
2022-09-07T03:29:52.246Z,2.70
2022-09-07T03:30:14.543Z,2.67
2022-09-07T03:30:36.530Z,2.75
2022-09-07T03:30:59.256Z,2.95
2022-09-07T03:31:21.457Z,2.58
2022-09-07T03:31:43.523Z,2.72
2022-09-07T03:32:05.524Z,2.78
2022-09-07T03:32:32.638Z,3.10
2022-09-07T03:32:54.763Z,2.97
2022-09-07T03:33:18.709Z,3.15
2022-09-07T03:33:40.558Z,3.00
2022-09-07T03:34:02.842Z,2.88
2022-09-07T03:34:24.676Z,2.92
2022-09-07T03:34:48.683Z,2.90
2022-09-07T03:35:10.659Z,2.83
2022-09-07T03:35:32.622Z,2.95
2022-09-07T03:36:02.872Z,3.13
2022-09-07T03:36:24.892Z,2.55
2022-09-07T03:36:46.918Z,2.78
2022-09-07T03:37:09.094Z,2.90
2022-09-07T03:37:31.135Z,2.92
2022-09-07T03:37:53.162Z,3.08
2022-09-07T03:38:15.073Z,2.85
2022-09-07T03:38:36.986Z,3.20
2022-09-07T03:38:59.433Z,3.00
2022-09-07T03:39:23.909Z,3.00
2022-09-07T03:39:45.871Z,2.90
2022-09-07T03:40:10.499Z,2.90
2022-09-07T03:40:34.505Z,2.90
2022-09-07T03:41:02.196Z,3.33
2022-09-07T03:41:29.482Z,3.00
2022-09-07T03:41:51.507Z,3.20
2022-09-07T03:42:13.652Z,3.03
2022-09-07T03:42:36.903Z,2.80
2022-09-07T03:42:58.868Z,2.80
2022-09-07T03:43:20.856Z,2.80
2022-09-07T03:43:44.922Z,2.80
2022-09-07T03:44:08.852Z,2.90
2022-09-07T03:44:30.966Z,2.70
2022-09-07T03:44:53.005Z,2.92
2022-09-07T03:45:17.700Z,3.17
2022-09-07T03:45:41.083Z,2.83
2022-09-07T03:46:06.280Z,3.00
2022-09-07T03:46:28.227Z,3.00
2022-09-07T03:46:50.220Z,2.97
2022-09-07T03:47:12.852Z,3.13
2022-09-07T03:47:36.238Z,3.03
2022-09-07T03:47:58.537Z,3.17
2022-09-07T03:48:20.894Z,3.20
2022-09-07T03:48:42.962Z,3.22
2022-09-07T03:49:36.212Z,3.20
2022-09-07T03:52:22.100Z,2.72
2022-09-07T03:52:44.566Z,2.90
2022-09-07T03:53:06.496Z,3.17
2022-09-07T03:53:32.397Z,3.55
2022-09-07T03:53:57.741Z,3.10
2022-09-07T03:54:19.631Z,3.05
2022-09-07T03:54:41.554Z,3.03
2022-09-07T03:55:04.702Z,2.92
2022-09-07T03:55:31.341Z,2.95
2022-09-07T03:55:57.979Z,2.85
2022-09-07T03:56:22.345Z,3.10
2022-09-07T03:56:44.359Z,3.00
2022-09-07T03:57:06.355Z,3.15
2022-09-07T03:57:28.334Z,2.90
2022-09-07T03:57:50.268Z,2.90
2022-09-07T03:58:12.186Z,3.20
2022-09-07T03:58:36.041Z,3.40
2022-09-07T03:58:58.134Z,3.30
2022-09-07T03:59:20.197Z,3.30
2022-09-07T03:59:42.117Z,3.17
2022-09-07T04:00:05.736Z,3.15
2022-09-07T04:00:27.804Z,3.10
2022-09-07T04:00:49.964Z,3.05
2022-09-07T04:01:15.993Z,3.22
2022-09-07T04:01:40.060Z,3.10
2022-09-07T04:02:02.509Z,3.20
2022-09-07T04:02:28.456Z,3.00
2022-09-07T04:02:50.397Z,2.90
2022-09-07T04:03:14.773Z,3.00
2022-09-07T04:03:37.595Z,3.22
2022-09-07T04:04:02.705Z,3.50
2022-09-07T04:04:24.695Z,3.50
2022-09-07T04:04:47.337Z,3.70
2022-09-07T04:05:09.413Z,3.22
2022-09-07T04:05:32.736Z,3.20
2022-09-07T04:05:55.092Z,3.10
2022-09-07T04:06:18.141Z,3.28
2022-09-07T04:06:42.383Z,3.42
2022-09-07T04:07:04.496Z,3.70
2022-09-07T04:07:26.407Z,3.55
2022-09-07T04:07:49.228Z,3.33
2022-09-07T04:08:11.981Z,3.22
2022-09-07T04:08:37.525Z,3.42
2022-09-07T04:09:08.090Z,3.50
2022-09-07T04:09:30.486Z,3.33
2022-09-07T04:09:53.385Z,3.38
2022-09-07T04:10:19.517Z,3.50
2022-09-07T04:10:42.004Z,3.65
2022-09-07T04:11:05.865Z,3.63
2022-09-07T04:11:27.831Z,3.10
2022-09-07T04:11:50.905Z,3.22
2022-09-07T04:12:12.893Z,3.50
2022-09-07T04:12:35.293Z,3.67
2022-09-07T04:12:57.707Z,3.50
2022-09-07T04:13:22.210Z,3.20
2022-09-07T04:13:45.737Z,3.42
2022-09-07T04:14:11.772Z,3.58
2022-09-07T04:14:37.519Z,3.80
2022-09-07T04:15:02.040Z,3.92
2022-09-07T04:15:24.150Z,3.92
2022-09-07T04:15:47.082Z,3.58
2022-09-07T04:16:23.437Z,3.55
2022-09-07T04:16:45.826Z,4.55
2022-09-07T04:17:10.749Z,4.30
2022-09-07T04:17:36.098Z,4.00
2022-09-07T04:17:58.235Z,3.70
2022-09-07T04:18:22.977Z,4.07
2022-09-07T04:18:45.591Z,3.97
2022-09-07T04:19:07.726Z,3.60
2022-09-07T04:19:30.389Z,3.70
2022-09-07T04:19:52.510Z,3.70
2022-09-07T04:20:14.461Z,3.83
2022-09-07T04:20:36.353Z,3.72
2022-09-07T04:20:59.426Z,3.50
2022-09-07T04:21:22.960Z,3.55
2022-09-07T04:21:46.716Z,3.90
2022-09-07T04:22:12.463Z,3.67
2022-09-07T04:22:35.456Z,3.72
2022-09-07T04:22:57.756Z,3.70
2022-09-07T04:23:20.226Z,3.85
2022-09-07T04:23:45.662Z,3.55
2022-09-07T04:24:11.298Z,3.72
2022-09-07T04:24:33.260Z,3.95
2022-09-07T04:24:55.290Z,3.72
2022-09-07T04:25:18.344Z,3.40
2022-09-07T04:25:48.443Z,4.03
2022-09-07T04:26:25.085Z,3.92
2022-09-07T04:26:47.061Z,3.72
2022-09-07T04:27:08.982Z,3.55
2022-09-07T04:27:31.275Z,3.65
2022-09-07T04:27:53.317Z,3.75
2022-09-07T04:28:19.750Z,3.58
2022-09-07T04:28:41.718Z,3.85
2022-09-07T04:29:04.953Z,3.70
2022-09-07T04:29:26.946Z,3.67
2022-09-07T04:29:48.941Z,3.70
2022-09-07T04:30:11.867Z,3.53
2022-09-07T04:30:36.193Z,3.38
2022-09-07T04:31:05.761Z,3.50
2022-09-07T04:31:29.508Z,3.72
2022-09-07T04:31:52.559Z,3.78
2022-09-07T04:32:16.055Z,3.28
2022-09-07T04:32:38.299Z,3.70
2022-09-07T04:33:00.230Z,3.40
2022-09-07T04:33:22.215Z,3.40
2022-09-07T04:33:45.438Z,3.17
2022-09-07T04:34:10.371Z,3.30
2022-09-07T04:34:39.087Z,3.70
2022-09-07T04:35:01.088Z,3.42
2022-09-07T04:35:23.761Z,3.30
2022-09-07T04:35:47.179Z,3.45
2022-09-07T04:36:09.691Z,3.58
2022-09-07T04:36:32.518Z,3.10
2022-09-07T04:36:54.456Z,3.60
2022-09-07T04:37:16.430Z,3.83
2022-09-07T04:37:41.007Z,3.30
2022-09-07T04:38:05.204Z,3.80
2022-09-07T04:38:28.105Z,4.07
2022-09-07T04:39:00.236Z,4.18
2022-09-07T04:39:23.504Z,4.18
2022-09-07T04:39:47.364Z,4.10
2022-09-07T04:40:09.873Z,3.97
2022-09-07T04:40:31.880Z,3.78
2022-09-07T04:41:24.821Z,3.60
2022-09-07T04:41:46.731Z,3.60
2022-09-07T04:42:08.629Z,3.83
2022-09-07T04:42:33.920Z,3.92
2022-09-07T04:42:55.868Z,3.83
2022-09-07T04:43:17.914Z,3.70
2022-09-07T04:43:41.229Z,4.03
2022-09-07T04:44:04.724Z,3.90
2022-09-07T04:44:29.780Z,3.97
2022-09-07T04:44:51.728Z,4.10
2022-09-07T04:45:13.659Z,3.90
2022-09-07T04:45:38.995Z,4.20
2022-09-07T04:46:09.865Z,4.60
2022-09-07T04:46:36.554Z,4.55
2022-09-07T04:46:58.586Z,5.00
2022-09-07T04:47:20.731Z,4.20
2022-09-07T04:47:48.304Z,4.00
2022-09-07T04:48:18.005Z,4.05
2022-09-07T04:48:40.222Z,4.10
2022-09-07T04:49:06.262Z,4.20
2022-09-07T04:49:29.179Z,4.45
2022-09-07T04:49:57.888Z,4.68
2022-09-07T04:50:19.898Z,4.20
2022-09-07T04:50:41.850Z,4.35
2022-09-07T04:51:11.032Z,4.50
2022-09-07T04:51:34.052Z,4.45
2022-09-07T04:51:56.101Z,4.07
2022-09-07T04:52:18.474Z,4.05
2022-09-07T04:52:45.516Z,4.32
2022-09-07T04:53:08.790Z,4.32
2022-09-07T04:53:33.602Z,4.40
2022-09-07T04:53:57.295Z,4.03
2022-09-07T04:54:19.372Z,4.25
2022-09-07T04:54:42.634Z,4.68
2022-09-07T04:55:05.170Z,4.35
2022-09-07T04:55:27.239Z,4.20
2022-09-07T04:55:49.303Z,4.15
2022-09-07T04:56:16.329Z,4.15
2022-09-07T04:56:39.066Z,4.50
2022-09-07T04:57:01.154Z,4.47
2022-09-07T04:57:26.640Z,4.40
2022-09-07T04:57:51.971Z,4.20
2022-09-07T04:58:17.109Z,4.15
2022-09-07T04:58:39.206Z,4.45
2022-09-07T04:59:01.943Z,4.22
2022-09-07T04:59:24.135Z,4.30
2022-09-07T04:59:47.903Z,4.40
2022-09-07T05:00:11.691Z,4.60
2022-09-07T05:00:33.604Z,4.68
2022-09-07T05:00:55.742Z,4.22
2022-09-07T05:01:20.803Z,4.35
2022-09-07T05:01:42.779Z,4.18
2022-09-07T05:02:05.046Z,4.32
2022-09-07T05:02:27.294Z,4.35
2022-09-07T05:02:49.285Z,4.60
2022-09-07T05:03:11.414Z,4.60
2022-09-07T05:03:36.591Z,4.45
2022-09-07T05:04:01.349Z,4.10
2022-09-07T05:04:23.233Z,4.47
2022-09-07T05:04:45.248Z,4.20
2022-09-07T05:05:07.918Z,4.55
2022-09-07T05:05:31.797Z,4.32
2022-09-07T05:05:53.810Z,4.32
2022-09-07T05:06:18.448Z,4.38
2022-09-07T05:06:43.233Z,4.35
2022-09-07T05:07:07.536Z,4.20
2022-09-07T05:07:29.505Z,4.40
2022-09-07T05:07:51.599Z,4.43
2022-09-07T05:08:14.181Z,4.72
2022-09-07T05:08:44.803Z,4.45
2022-09-07T05:09:06.817Z,4.57
2022-09-07T05:09:32.107Z,4.53
2022-09-07T05:09:54.048Z,4.57
2022-09-07T05:10:15.962Z,4.43
2022-09-07T05:10:38.957Z,4.22
2022-09-07T05:11:00.964Z,4.38
2022-09-07T05:11:28.875Z,4.32
2022-09-07T05:11:51.639Z,4.85
2022-09-07T05:12:13.627Z,4.55
2022-09-07T05:12:35.843Z,4.50
2022-09-07T05:12:58.145Z,4.38
2022-09-07T05:13:20.387Z,4.20
2022-09-07T05:13:42.847Z,4.30
2022-09-07T05:14:05.033Z,4.35
2022-09-07T05:14:27.273Z,4.53
2022-09-07T05:14:51.190Z,4.57
2022-09-07T05:15:15.957Z,4.20
2022-09-07T05:15:38.018Z,4.18
2022-09-07T05:16:02.121Z,3.83
2022-09-07T05:16:25.322Z,3.97
2022-09-07T05:16:47.598Z,4.28
2022-09-07T05:17:09.583Z,4.43
2022-09-07T05:17:31.595Z,4.82
2022-09-07T05:17:56.333Z,4.88
2022-09-07T05:18:18.261Z,4.18
2022-09-07T05:18:41.040Z,4.18
2022-09-07T05:19:05.120Z,4.40
2022-09-07T05:19:28.145Z,4.85
2022-09-07T05:19:51.119Z,4.53
2022-09-07T05:20:16.293Z,4.30
2022-09-07T05:20:42.507Z,4.40
2022-09-07T05:21:17.366Z,4.20
2022-09-07T05:21:40.306Z,4.63
2022-09-07T05:22:02.366Z,4.80
2022-09-07T05:22:28.052Z,4.57
2022-09-07T05:22:59.621Z,4.30
2022-09-07T05:23:23.420Z,4.78
2022-09-07T05:23:48.607Z,4.35
2022-09-07T05:24:10.624Z,4.10
2022-09-07T05:24:36.914Z,3.80
2022-09-07T05:25:06.356Z,4.45
2022-09-07T05:25:29.116Z,4.15
2022-09-07T05:25:51.033Z,4.63
2022-09-07T05:26:13.119Z,4.78
2022-09-07T05:26:36.914Z,4.25
2022-09-07T05:27:02.141Z,4.80
2022-09-07T05:27:24.537Z,4.50
2022-09-07T05:27:46.654Z,4.22
2022-09-07T05:28:09.804Z,4.13
2022-09-07T05:28:32.773Z,4.20
2022-09-07T05:31:41.368Z,4.15
2022-09-07T05:32:03.382Z,4.13
2022-09-07T05:32:25.564Z,4.00
2022-09-07T05:32:47.799Z,3.70
2022-09-07T05:33:09.848Z,4.22
2022-09-07T05:34:33.491Z,3.97
2022-09-07T05:34:55.554Z,4.53
2022-09-07T05:35:19.704Z,4.18
2022-09-07T05:35:41.620Z,4.20
2022-09-07T05:36:04.279Z,4.03
2022-09-07T05:36:30.074Z,4.18
2022-09-07T05:36:52.103Z,4.18
2022-09-07T05:37:14.073Z,4.55
2022-09-07T05:37:36.167Z,4.15
2022-09-07T05:37:58.139Z,3.97
2022-09-07T05:38:20.081Z,4.13
2022-09-07T05:38:42.590Z,4.47
2022-09-07T05:39:05.939Z,4.80
2022-09-07T05:39:30.281Z,4.57
2022-09-07T05:39:55.136Z,4.35
2022-09-07T05:40:17.803Z,4.53
2022-09-07T05:40:40.886Z,4.72
2022-09-07T05:41:16.401Z,4.90
2022-09-07T05:41:38.695Z,4.90
2022-09-07T05:42:00.908Z,4.70
2022-09-07T05:42:22.964Z,5.10
2022-09-07T05:42:45.116Z,5.55
2022-09-07T05:43:10.396Z,4.78
2022-09-07T05:43:32.379Z,4.85
2022-09-07T05:44:46.309Z,5.03
2022-09-07T05:45:09.067Z,4.60
2022-09-07T05:45:31.657Z,4.50
2022-09-07T05:45:56.739Z,4.65
2022-09-07T05:46:19.655Z,5.40
2022-09-07T05:46:44.606Z,5.35
2022-09-07T05:47:06.914Z,5.43
2022-09-07T05:47:29.160Z,5.07
2022-09-07T05:47:55.875Z,5.25
2022-09-07T05:48:18.141Z,5.25
2022-09-07T05:48:40.397Z,5.50
2022-09-07T05:49:03.517Z,5.60
2022-09-07T05:49:25.524Z,5.15
2022-09-07T05:49:47.520Z,5.38
2022-09-07T05:50:09.922Z,4.85
2022-09-07T05:50:31.835Z,5.32
2022-09-07T05:50:54.049Z,5.60
2022-09-07T05:51:16.459Z,6.00
2022-09-07T05:51:38.942Z,5.35
2022-09-07T05:52:01.104Z,5.10
2022-09-07T05:52:23.065Z,4.75
2022-09-07T05:52:46.172Z,5.22
2022-09-07T05:53:08.217Z,5.50
2022-09-07T05:53:30.299Z,5.28
2022-09-07T05:53:52.247Z,5.38
2022-09-07T05:54:14.439Z,5.78
2022-09-07T05:54:36.426Z,5.35
2022-09-07T05:55:13.044Z,5.60
2022-09-07T05:55:40.434Z,5.40
2022-09-07T05:56:06.936Z,5.95
2022-09-07T05:56:29.073Z,5.70
2022-09-07T05:56:51.752Z,5.60
2022-09-07T05:57:13.879Z,5.55
2022-09-07T05:57:35.998Z,5.65
2022-09-07T05:57:58.077Z,5.32
2022-09-07T05:58:20.617Z,5.18
2022-09-07T05:58:42.714Z,5.55
2022-09-07T05:59:05.160Z,5.82
2022-09-07T05:59:27.126Z,5.68
2022-09-07T05:59:49.178Z,5.63
2022-09-07T06:00:13.202Z,5.57
2022-09-07T06:00:36.286Z,5.90
2022-09-07T06:01:08.443Z,6.20
2022-09-07T06:01:31.815Z,6.28
2022-09-07T06:01:53.878Z,5.45
2022-09-07T06:02:16.713Z,5.57
2022-09-07T06:02:39.895Z,5.68
2022-09-07T06:03:02.215Z,5.72
2022-09-07T06:03:25.100Z,5.75
2022-09-07T06:03:47.369Z,5.97
2022-09-07T06:04:09.315Z,6.20
2022-09-07T06:04:31.485Z,6.22
2022-09-07T06:04:53.393Z,5.47
2022-09-07T06:05:19.255Z,5.75
2022-09-07T06:05:41.134Z,5.53
2022-09-07T06:06:05.840Z,5.80
2022-09-07T06:06:27.981Z,6.10
2022-09-07T06:07:17.765Z,5.70
2022-09-07T06:07:31.960Z,5.97
2022-09-07T06:07:53.970Z,5.93
2022-09-07T06:08:15.873Z,6.07
2022-09-07T06:08:41.070Z,6.00
2022-09-07T06:09:02.981Z,5.88
2022-09-07T06:09:28.513Z,5.97
2022-09-07T06:10:43.376Z,6.28
2022-09-07T06:11:11.005Z,6.13
2022-09-07T06:11:32.909Z,6.43
2022-09-07T06:11:55.260Z,5.53
2022-09-07T06:12:17.220Z,5.70
2022-09-07T06:12:39.365Z,5.80
2022-09-07T06:13:01.303Z,6.05
2022-09-07T06:13:24.518Z,6.10
2022-09-07T06:13:46.763Z,6.00
2022-09-07T06:14:10.145Z,5.88
2022-09-07T06:14:34.439Z,5.90
2022-09-07T06:14:57.678Z,6.30
2022-09-07T06:15:22.047Z,6.18
2022-09-07T06:15:44.226Z,5.97
2022-09-07T06:16:09.527Z,6.07
2022-09-07T06:16:35.033Z,5.60
2022-09-07T06:16:57.152Z,5.75
2022-09-07T06:17:19.794Z,6.05
2022-09-07T06:17:41.818Z,6.22
2022-09-07T06:18:03.845Z,6.00
2022-09-07T06:18:29.869Z,6.20
2022-09-07T06:18:52.096Z,5.90
2022-09-07T06:19:14.076Z,6.03
2022-09-07T06:19:35.989Z,6.03
2022-09-07T06:19:58.450Z,5.85
2022-09-07T06:20:20.385Z,5.93
2022-09-07T06:20:42.336Z,6.05
2022-09-07T06:21:19.135Z,6.15
2022-09-07T06:21:41.163Z,6.25
2022-09-07T06:22:03.089Z,6.10
2022-09-07T06:22:30.748Z,6.50
2022-09-07T06:22:53.244Z,5.90
2022-09-07T06:23:15.349Z,5.30
2022-09-07T06:23:39.366Z,6.03
2022-09-07T06:24:01.798Z,6.53
2022-09-07T06:24:25.111Z,6.40
2022-09-07T06:24:47.195Z,6.20
2022-09-07T06:25:09.370Z,5.95
2022-09-07T06:25:32.142Z,6.07
2022-09-07T06:25:56.701Z,6.40
2022-09-07T06:26:19.883Z,6.63
2022-09-07T06:26:41.925Z,5.90
2022-09-07T06:27:04.724Z,5.82
2022-09-07T06:27:26.999Z,6.22
2022-09-07T06:28:09.317Z,6.20
2022-09-07T06:28:41.572Z,6.03
2022-09-07T06:29:03.970Z,6.32
2022-09-07T06:29:25.916Z,6.32
2022-09-07T06:29:51.159Z,6.10
2022-09-07T06:30:13.213Z,6.10
2022-09-07T06:30:35.229Z,6.03
2022-09-07T06:31:27.972Z,6.05
2022-09-07T06:32:47.347Z,6.15
2022-09-07T06:33:09.325Z,6.50
2022-09-07T06:33:31.968Z,6.70
2022-09-07T06:33:55.287Z,6.20
2022-09-07T06:34:23.326Z,6.38
2022-09-07T06:34:45.450Z,6.40
2022-09-07T06:35:07.766Z,6.68
2022-09-07T06:35:32.241Z,6.53
2022-09-07T06:36:01.921Z,6.25
2022-09-07T06:36:27.812Z,6.20
2022-09-07T06:36:49.733Z,5.85